Time,TemperatureF,DewpointF,PressureIn,WindDirection,WindDirectionDegrees,WindSpeedMPH,WindSpeedGustMPH,Humidity,HourlyPrecipIn,Conditions,Clouds,dailyrainin,SoftwareType,DateUTC
2016-08-24 00:28:00,72.0,72.0,-100.00,North,355,0.0,0.0,99,-99.99,,,-99.99,,2016-08-24 05:28:00,
2016-08-24 00:35:00,72.0,72.0,-100.00,North,355,0.0,0.0,99,-99.99,,,-99.99,,2016-08-24 05:35:00,
2016-08-24 00:49:00,72.0,72.0,-100.00,North,355,0.0,0.0,99,-99.99,,,-99.99,,2016-08-24 05:49:00,
2016-08-24 00:53:00,72.0,72.0,-100.00,North,355,0.0,0.0,99,-99.99,,,-99.99,,2016-08-24 05:53:00,
2016-08-24 01:24:00,72.0,72.0,-100.00,North,355,0.0,-999.0,99,-99.99,,,-99.99,,2016-08-24 06:24:00,
2016-08-24 01:46:00,72.0,72.0,-100.00,North,355,0.0,0.0,99,-99.99,,,-99.99,,2016-08-24 06:46:00,
2016-08-24 01:53:00,72.0,72.0,-100.00,North,355,0.0,0.0,99,-99.99,,,-99.99,,2016-08-24 06:53:00,
2016-08-24 02:25:00,72.0,72.0,-100.00,North,355,0.0,0.0,99,-99.99,,,-99.99,,2016-08-24 07:25:00,
2016-08-24 02:36:00,72.0,72.0,-100.00,North,355,0.0,0.0,99,-99.99,,,-99.99,,2016-08-24 07:36:00,
2016-08-24 02:48:00,72.0,72.0,-100.00,North,355,0.0,0.0,99,-99.99,,,-99.99,,2016-08-24 07:48:00,
2016-08-24 03:23:00,71.0,70.0,-100.00,North,355,0.0,0.0,99,-99.99,,,-99.99,,2016-08-24 08:23:00,
2016-08-24 03:34:00,71.0,70.0,-100.00,North,355,0.0,0.0,99,-99.99,,,-99.99,,2016-08-24 08:34:00,
2016-08-24 03:46:00,71.0,70.0,-100.00,North,355,0.0,0.0,99,-99.99,,,-99.99,,2016-08-24 08:46:00,
2016-08-24 03:53:00,71.0,70.0,-100.00,North,355,0.0,0.0,99,-99.99,,,-99.99,,2016-08-24 08:53:00,
2016-08-24 04:24:00,71.0,70.0,-100.00,North,355,0.0,0.0,99,-99.99,,,-99.99,,2016-08-24 09:24:00,
2016-08-24 04:34:00,71.0,70.0,-100.00,North,355,0.0,-999.0,99,-99.99,,,-99.99,,2016-08-24 09:34:00,
2016-08-24 04:44:00,71.0,70.0,-100.00,North,355,0.0,0.0,99,-99.99,,,-99.99,,2016-08-24 09:44:00,
2016-08-24 04:53:00,71.0,71.0,-100.00,North,355,0.0,-999.0,99,-99.99,,,-99.99,,2016-08-24 09:53:00,
2016-08-24 05:25:00,71.0,71.0,-100.00,North,355,0.0,0.0,99,-99.99,,,-99.99,,2016-08-24 10:25:00,
2016-08-24 05:34:00,71.0,71.0,-100.00,North,355,0.0,0.0,99,-99.99,,,-99.99,,2016-08-24 10:34:00,
2016-08-24 05:44:00,71.0,71.0,-100.00,North,355,0.0,0.0,99,-99.99,,,-99.99,,2016-08-24 10:44:00,
2016-08-24 05:53:00,72.0,72.0,-100.00,North,355,0.0,0.0,99,-99.99,,,-99.99,,2016-08-24 10:53:00,
2016-08-24 06:25:00,72.0,72.0,-100.00,North,355,0.0,0.0,99,-99.99,,,-99.99,,2016-08-24 11:25:00,
2016-08-24 06:37:00,72.0,72.0,-100.00,North,355,0.0,0.0,99,-99.99,,,-99.99,,2016-08-24 11:37:00,
2016-08-24 06:53:00,71.0,71.0,-100.00,North,355,0.0,0.0,99,-99.99,,,-99.99,,2016-08-24 11:53:00,
2016-08-24 07:25:00,71.0,71.0,-100.00,North,355,0.0,0.0,99,-99.99,,,-99.99,,2016-08-24 12:25:00,
2016-08-24 07:35:00,71.0,71.0,-100.00,North,355,0.0,0.0,99,-99.99,,,-99.99,,2016-08-24 12:35:00,
2016-08-24 07:45:00,71.0,71.0,-100.00,North,355,0.0,0.0,99,-99.99,,,-99.99,,2016-08-24 12:45:00,
2016-08-24 07:53:00,68.0,67.0,-100.00,North,355,0.0,0.0,99,-99.99,,,-99.99,,2016-08-24 12:53:00,
2016-08-24 08:26:00,68.0,67.0,-100.00,North,355,0.0,0.0,99,-99.99,,,-99.99,,2016-08-24 13:26:00,
2016-08-24 08:35:00,68.0,67.0,-100.00,North,355,0.0,0.0,99,-99.99,,,-99.99,,2016-08-24 13:35:00,
2016-08-24 08:45:00,68.0,67.0,-100.00,North,355,0.0,0.0,99,-99.99,,,-99.99,,2016-08-24 13:45:00,
2016-08-24 08:53:00,68.0,68.0,-100.00,North,355,0.0,0.0,99,-99.99,,,-99.99,,2016-08-24 13:53:00,
2016-08-24 09:23:00,68.0,68.0,-100.00,North,355,0.0,0.0,99,-99.99,,,-99.99,,2016-08-24 14:23:00,
2016-08-24 09:34:00,68.0,68.0,-100.00,North,355,0.0,0.0,99,-99.99,,,-99.99,,2016-08-24 14:34:00,
2016-08-24 09:44:00,68.0,68.0,-100.00,North,355,0.0,0.0,99,-99.99,,,-99.99,,2016-08-24 14:44:00,
2016-08-24 09:53:00,71.0,70.0,-100.00,North,355,0.0,0.0,99,-99.99,,,-99.99,,2016-08-24 14:53:00,
2016-08-24 10:35:00,71.0,70.0,-100.00,North,355,0.0,0.0,99,-99.99,,,-99.99,,2016-08-24 15:35:00,
2016-08-24 11:23:00,73.0,73.0,-100.00,North,355,0.0,-999.0,99,-99.99,,,-99.99,,2016-08-24 16:23:00,
2016-08-24 11:36:00,73.0,73.0,-100.00,North,355,0.0,0.0,99,-99.99,,,-99.99,,2016-08-24 16:36:00,
2016-08-24 11:53:00,76.0,75.0,-100.00,North,355,0.0,0.0,99,-99.99,,,-99.99,,2016-08-24 16:53:00,
2016-08-24 12:25:00,76.0,75.0,-100.00,North,355,0.0,-999.0,99,-99.99,,,-99.99,,2016-08-24 17:25:00,
2016-08-24 12:37:00,76.0,75.0,-100.00,North,355,0.0,-999.0,99,-99.99,,,-99.99,,2016-08-24 17:37:00,
2016-08-24 12:46:00,76.0,75.0,-100.00,North,355,0.0,0.0,99,-99.99,,,-99.99,,2016-08-24 17:46:00,
2016-08-24 20:25:00,81.0,80.0,-100.00,North,355,0.0,0.0,99,-99.99,,,-99.99,,2016-08-25 01:25:00,